createdAt,value
2019-05-20T00:01:53.264Z,90.50
2019-05-20T00:04:21.814Z,90.40
2019-05-20T00:06:50.409Z,90.40
2019-05-20T00:09:19.049Z,90.40
2019-05-20T00:11:48.165Z,90.40
2019-05-20T00:14:19.694Z,90.40
2019-05-20T00:16:48.457Z,90.40
2019-05-20T00:19:17.015Z,90.40
2019-05-20T00:21:46.947Z,90.40
2019-05-20T00:24:15.587Z,90.40
2019-05-20T00:26:44.068Z,90.40
2019-05-20T00:29:12.673Z,90.40
2019-05-20T00:31:41.336Z,90.40
2019-05-20T00:34:09.804Z,90.50
2019-05-20T00:36:39.138Z,90.40
2019-05-20T00:39:20.551Z,90.10
2019-05-20T00:41:50.131Z,90.40
2019-05-20T00:44:19.221Z,90.40
2019-05-20T00:46:48.000Z,90.40
2019-05-20T00:49:16.567Z,90.40
2019-05-20T00:51:45.638Z,90.30
2019-05-20T00:54:14.823Z,90.40
2019-05-20T00:56:43.476Z,90.40
2019-05-20T00:59:12.022Z,90.30
2019-05-20T01:01:40.936Z,90.30
2019-05-20T01:04:09.530Z,90.30
2019-05-20T01:06:38.119Z,90.30
2019-05-20T01:09:08.008Z,90.20
2019-05-20T01:11:36.643Z,90.20
2019-05-20T01:14:05.738Z,90.20
2019-05-20T01:16:34.799Z,90.10
2019-05-20T01:19:03.346Z,90.20
2019-05-20T01:21:32.276Z,90.30
2019-05-20T01:24:01.105Z,90.20
2019-05-20T01:26:29.675Z,90.10
2019-05-20T01:28:58.839Z,90.20
2019-05-20T01:31:28.062Z,90.20
2019-05-20T01:33:56.577Z,90.10
2019-05-20T01:36:25.047Z,90.20
2019-05-20T01:38:53.817Z,90.20
2019-05-20T01:41:23.425Z,90.20
2019-05-20T01:43:51.988Z,90.20
2019-05-20T01:46:20.599Z,90.20
2019-05-20T01:48:49.161Z,90.10
2019-05-20T01:51:18.943Z,90.10
2019-05-20T01:53:47.539Z,90.20
2019-05-20T01:56:16.102Z,90.10
2019-05-20T01:58:44.669Z,90.20
2019-05-20T02:01:13.623Z,90.20
2019-05-20T02:03:42.119Z,90.20
2019-05-20T02:06:10.659Z,90.20
2019-05-20T02:08:39.156Z,90.20
2019-05-20T02:11:08.033Z,90.20
2019-05-20T02:13:53.032Z,90.10
2019-05-20T02:16:23.608Z,90.10
2019-05-20T02:18:52.147Z,90.10
2019-05-20T02:21:21.022Z,90.10
2019-05-20T02:23:49.587Z,90.10
2019-05-20T02:26:18.123Z,90.10
2019-05-20T02:28:46.788Z,90.10
2019-05-20T02:31:16.810Z,90.20
2019-05-20T02:33:51.558Z,90.20
2019-05-20T02:36:15.840Z,90.20
2019-05-20T02:38:44.471Z,90.20
2019-05-20T02:41:13.228Z,90.20
2019-05-20T02:43:41.897Z,90.20
2019-05-20T02:46:10.438Z,90.20
2019-05-20T02:48:38.986Z,90.30
2019-05-20T02:51:08.154Z,90.30
2019-05-20T02:53:36.807Z,90.30
2019-05-20T02:56:05.354Z,90.40
2019-05-20T02:58:34.206Z,90.40
2019-05-20T03:01:04.017Z,90.40
2019-05-20T03:03:32.647Z,90.50
2019-05-20T03:06:01.250Z,90.50
2019-05-20T03:08:29.710Z,90.50
2019-05-20T03:10:58.560Z,90.50
2019-05-20T03:13:27.330Z,90.50
2019-05-20T03:15:56.020Z,90.40
2019-05-20T03:18:24.530Z,90.30
2019-05-20T03:20:53.534Z,90.30
2019-05-20T03:23:22.148Z,90.40
2019-05-20T03:25:50.689Z,90.60
2019-05-20T03:28:19.530Z,90.30
2019-05-20T03:30:48.131Z,90.20
2019-05-20T03:33:16.741Z,90.10
2019-05-20T03:35:45.747Z,90.10
2019-05-20T03:38:14.446Z,90.10
2019-05-20T03:40:43.357Z,90.20
2019-05-20T03:43:12.092Z,90.10
2019-05-20T03:45:40.635Z,90.20
2019-05-20T03:48:09.250Z,90.20
2019-05-20T03:50:38.378Z,90.30
2019-05-20T03:53:07.006Z,90.30
2019-05-20T03:55:35.558Z,90.30
2019-05-20T03:58:04.334Z,90.30
2019-05-20T04:00:47.514Z,90.30
2019-05-20T04:03:16.851Z,90.40
2019-05-20T04:05:46.055Z,90.20
2019-05-20T04:08:14.987Z,90.20
2019-05-20T04:10:44.276Z,90.20
2019-05-20T04:13:12.822Z,90.20
2019-05-20T04:15:41.313Z,90.20
2019-05-20T04:18:10.359Z,90.20
2019-05-20T04:20:39.032Z,90.20
2019-05-20T04:23:07.659Z,90.30
2019-05-20T04:25:36.321Z,90.20
2019-05-20T04:28:05.243Z,90.20
2019-05-20T04:30:33.812Z,90.60
2019-05-20T04:33:02.358Z,90.30
2019-05-20T04:35:30.832Z,90.40
2019-05-20T04:37:59.513Z,90.50
2019-05-20T04:40:28.366Z,90.50
2019-05-20T04:42:56.905Z,90.50
2019-05-20T04:45:25.496Z,90.60
2019-05-20T04:47:54.382Z,90.60
2019-05-20T04:50:23.341Z,90.60
2019-05-20T04:52:51.879Z,90.60
2019-05-20T04:55:20.724Z,90.60
2019-05-20T04:57:49.273Z,90.70
2019-05-20T05:00:20.833Z,90.90
2019-05-20T05:02:49.588Z,90.80
2019-05-20T05:05:18.206Z,90.90
2019-05-20T05:07:46.751Z,91.00
2019-05-20T05:10:15.869Z,91.00
2019-05-20T05:12:44.574Z,91.00
2019-05-20T05:15:13.798Z,91.00
2019-05-20T05:17:42.440Z,90.80
2019-05-20T05:20:18.273Z,91.10
2019-05-20T05:22:42.097Z,91.10
2019-05-20T05:25:11.635Z,91.00
2019-05-20T05:27:40.103Z,91.00
2019-05-20T05:30:09.121Z,91.10
2019-05-20T05:32:44.293Z,91.50
2019-05-20T05:35:17.410Z,91.20
2019-05-20T05:37:46.106Z,91.20
2019-05-20T05:40:16.121Z,91.20
2019-05-20T05:42:44.666Z,91.10
2019-05-20T05:45:13.712Z,91.10
2019-05-20T05:47:42.311Z,91.20
2019-05-20T05:50:11.293Z,91.10
2019-05-20T05:52:40.031Z,91.00
2019-05-20T05:55:08.909Z,91.00
2019-05-20T05:57:37.388Z,91.00
2019-05-20T06:00:07.506Z,91.00
2019-05-20T06:02:36.050Z,91.00
2019-05-20T06:05:05.870Z,91.00
2019-05-20T06:07:34.434Z,91.00
2019-05-20T06:10:03.112Z,91.00
2019-05-20T06:12:32.085Z,90.80
2019-05-20T06:15:00.704Z,90.80
2019-05-20T06:17:29.594Z,90.80
2019-05-20T06:19:58.334Z,90.70
2019-05-20T06:22:27.167Z,90.70
2019-05-20T06:24:55.796Z,90.70
2019-05-20T06:27:24.346Z,90.70
2019-05-20T06:29:52.943Z,90.70
2019-05-20T06:32:21.675Z,90.60
2019-05-20T06:34:50.219Z,90.60
2019-05-20T06:37:20.709Z,90.70
2019-05-20T06:39:51.300Z,90.70
2019-05-20T06:42:22.693Z,90.60
2019-05-20T06:44:53.927Z,90.50
2019-05-20T06:47:21.679Z,90.50
2019-05-20T06:49:50.212Z,90.40
2019-05-20T06:52:34.815Z,90.30
2019-05-20T06:54:51.035Z,90.20
2019-05-20T06:57:19.610Z,90.00
2019-05-20T06:59:48.079Z,89.60
2019-05-20T07:02:17.134Z,89.40
2019-05-20T07:04:45.703Z,89.60
2019-05-20T07:07:21.059Z,90.00
2019-05-20T07:09:44.804Z,89.30
2019-05-20T07:12:13.694Z,89.10
2019-05-20T07:14:42.317Z,89.20
2019-05-20T07:17:11.233Z,89.30
2019-05-20T07:19:39.847Z,88.80
2019-05-20T07:22:08.870Z,88.80
2019-05-20T07:24:37.740Z,88.50
2019-05-20T07:27:06.276Z,88.60
2019-05-20T07:29:34.747Z,88.60
2019-05-20T07:32:03.910Z,88.90
2019-05-20T07:34:32.558Z,89.00
2019-05-20T07:37:03.688Z,89.00
2019-05-20T07:39:31.794Z,89.10
2019-05-20T07:42:00.929Z,89.00
2019-05-20T07:44:29.553Z,89.00
2019-05-20T07:46:58.739Z,88.90
2019-05-20T07:49:27.732Z,88.70
2019-05-20T07:51:56.942Z,88.50
2019-05-20T07:54:26.149Z,88.40
2019-05-20T07:56:57.169Z,88.50
2019-05-20T07:59:28.439Z,88.60
2019-05-20T08:01:57.635Z,88.60
2019-05-20T08:04:26.493Z,88.50
2019-05-20T08:06:55.044Z,88.40
2019-05-20T08:09:24.009Z,88.30
2019-05-20T08:11:52.793Z,88.60
2019-05-20T08:14:21.463Z,88.70
2019-05-20T08:16:50.210Z,89.40
2019-05-20T08:19:18.761Z,88.50
2019-05-20T08:21:47.595Z,88.40
2019-05-20T08:24:16.164Z,88.50
2019-05-20T08:26:44.745Z,88.60
2019-05-20T08:29:13.589Z,88.90
2019-05-20T08:31:42.502Z,88.90
2019-05-20T08:34:11.074Z,89.00
2019-05-20T08:36:39.756Z,88.60
2019-05-20T08:39:08.928Z,88.40
2019-05-20T08:41:37.994Z,88.20
2019-05-20T08:44:06.609Z,88.30
2019-05-20T08:46:35.188Z,88.30
2019-05-20T08:49:04.125Z,88.50
2019-05-20T08:51:32.958Z,88.50
2019-05-20T08:54:01.728Z,88.60
2019-05-20T08:56:30.349Z,89.30
2019-05-20T08:58:58.938Z,88.30
2019-05-20T09:01:28.299Z,88.00
2019-05-20T09:03:56.829Z,88.10
2019-05-20T09:06:25.315Z,88.20
2019-05-20T09:08:54.005Z,87.80
2019-05-20T09:11:22.520Z,87.90
2019-05-20T09:13:51.030Z,87.80
2019-05-20T09:16:19.767Z,87.90
2019-05-20T09:18:48.397Z,87.90
2019-05-20T09:21:17.331Z,88.20
2019-05-20T09:23:46.227Z,88.00
2019-05-20T09:26:14.827Z,87.80
2019-05-20T09:28:43.439Z,87.60
2019-05-20T09:31:12.683Z,87.20
2019-05-20T09:33:41.425Z,86.90
2019-05-20T09:36:10.132Z,87.00
2019-05-20T09:38:38.904Z,86.40
2019-05-20T09:41:07.995Z,86.20
2019-05-20T09:43:36.542Z,86.30
2019-05-20T09:46:08.063Z,86.30
2019-05-20T09:48:35.774Z,85.80
2019-05-20T09:51:05.614Z,86.10
2019-05-20T09:53:34.398Z,85.60
2019-05-20T09:56:03.003Z,85.30
2019-05-20T09:58:31.606Z,85.00
2019-05-20T10:01:00.347Z,84.60
2019-05-20T10:03:28.904Z,84.40
2019-05-20T10:05:57.490Z,84.50
2019-05-20T10:08:37.518Z,84.00
2019-05-20T10:10:59.610Z,83.70
2019-05-20T10:13:27.070Z,83.40
2019-05-20T10:15:55.644Z,83.30
2019-05-20T10:18:36.503Z,83.40
2019-05-20T10:20:57.213Z,83.10
2019-05-20T10:23:25.843Z,83.50
2019-05-20T10:25:54.675Z,83.40
2019-05-20T10:28:23.171Z,83.00
2019-05-20T10:30:52.139Z,83.30
2019-05-20T10:33:20.686Z,83.30
2019-05-20T10:35:49.234Z,83.70
2019-05-20T10:38:17.883Z,83.90
2019-05-20T10:40:46.745Z,84.30
2019-05-20T10:43:15.443Z,84.30
2019-05-20T10:45:44.330Z,84.40
2019-05-20T10:48:12.853Z,84.40
2019-05-20T10:50:41.499Z,84.50
2019-05-20T10:53:10.373Z,84.60
2019-05-20T10:55:38.983Z,84.70
2019-05-20T10:58:08.385Z,84.90
2019-05-20T11:00:37.125Z,84.70
2019-05-20T11:03:05.650Z,84.90
2019-05-20T11:05:34.191Z,84.70
2019-05-20T11:08:02.832Z,84.80
2019-05-20T11:10:31.447Z,84.50
2019-05-20T11:13:00.339Z,84.60
2019-05-20T11:15:29.023Z,84.40
2019-05-20T11:17:57.587Z,84.20
2019-05-20T11:20:26.604Z,84.00
2019-05-20T11:22:55.297Z,84.00
2019-05-20T11:25:23.914Z,83.90
2019-05-20T11:27:52.463Z,84.20
2019-05-20T11:30:21.759Z,84.00
2019-05-20T11:32:50.372Z,83.70
2019-05-20T11:35:19.104Z,83.60
2019-05-20T11:37:47.800Z,83.70
2019-05-20T11:40:18.281Z,83.80
2019-05-20T11:42:46.900Z,83.80
2019-05-20T11:45:19.128Z,83.50
2019-05-20T11:47:47.729Z,83.60
2019-05-20T11:50:19.006Z,83.70
2019-05-20T11:52:47.793Z,83.80
2019-05-20T11:55:17.522Z,84.00
2019-05-20T11:57:46.134Z,84.20
2019-05-20T12:00:16.025Z,84.20
2019-05-20T12:02:44.573Z,84.30
2019-05-20T12:05:14.716Z,84.50
2019-05-20T12:07:43.536Z,84.90
2019-05-20T12:10:12.854Z,85.10
2019-05-20T12:12:41.449Z,84.80
2019-05-20T12:15:10.336Z,84.60
2019-05-20T12:17:38.820Z,84.80
2019-05-20T12:20:12.880Z,84.60
2019-05-20T12:22:41.658Z,84.70
2019-05-20T12:25:10.809Z,84.50
2019-05-20T12:27:39.312Z,84.60
2019-05-20T12:30:09.823Z,84.80
2019-05-20T12:32:38.439Z,84.90
2019-05-20T12:35:08.351Z,84.50
2019-05-20T12:37:38.350Z,84.30
2019-05-20T12:40:08.769Z,84.20
2019-05-20T12:42:37.663Z,84.40
2019-05-20T12:45:08.127Z,83.90
2019-05-20T12:47:36.713Z,84.50
2019-05-20T12:50:06.261Z,83.20
2019-05-20T12:52:37.791Z,83.10
2019-05-20T12:55:09.644Z,83.10
2019-05-20T12:57:38.018Z,82.70
2019-05-20T13:00:12.336Z,82.60
2019-05-20T13:02:42.868Z,82.50
2019-05-20T13:05:12.152Z,82.50
2019-05-20T13:07:40.857Z,82.40
2019-05-20T13:10:28.066Z,82.40
2019-05-20T13:12:41.804Z,82.60
2019-05-20T13:15:12.598Z,82.50
2019-05-20T13:17:44.888Z,82.10
2019-05-20T13:20:11.717Z,82.00
2019-05-20T13:22:40.426Z,82.20
2019-05-20T13:25:09.409Z,82.10
2019-05-20T13:27:38.092Z,81.70
2019-05-20T13:30:08.454Z,82.10
2019-05-20T13:32:37.004Z,82.20
2019-05-20T13:35:08.436Z,82.20
2019-05-20T13:37:37.468Z,82.00
2019-05-20T13:40:08.022Z,81.80
2019-05-20T13:42:37.129Z,82.20
2019-05-20T13:45:07.891Z,81.80
2019-05-20T13:47:36.518Z,82.60
2019-05-20T13:50:10.229Z,82.90
2019-05-20T13:52:39.052Z,82.90
2019-05-20T13:55:11.138Z,83.10
2019-05-20T13:57:39.906Z,83.30
2019-05-20T14:00:09.900Z,83.40
2019-05-20T14:02:38.510Z,83.30
2019-05-20T14:05:07.440Z,83.60
2019-05-20T14:07:36.274Z,83.80
2019-05-20T14:10:06.602Z,83.80
2019-05-20T14:12:35.220Z,83.40
2019-05-20T14:15:05.107Z,83.20
2019-05-20T14:17:33.644Z,83.00
2019-05-20T14:20:02.384Z,82.90
2019-05-20T14:22:31.485Z,82.90
2019-05-20T14:25:00.111Z,83.10
2019-05-20T14:27:28.683Z,83.10
2019-05-20T14:29:57.417Z,83.30
2019-05-20T14:32:26.305Z,83.30
2019-05-20T14:34:54.855Z,83.50
2019-05-20T14:37:25.170Z,83.80
2019-05-20T14:39:54.038Z,83.90
2019-05-20T14:42:25.564Z,84.20
2019-05-20T14:44:54.240Z,85.10
2019-05-20T14:47:22.823Z,84.70
2019-05-20T14:49:51.418Z,84.90
2019-05-20T14:52:23.341Z,84.80
2019-05-20T14:54:51.998Z,84.80
2019-05-20T14:57:20.474Z,85.60
2019-05-20T14:59:49.466Z,85.10
2019-05-20T15:02:18.312Z,85.20
2019-05-20T15:04:46.930Z,85.10
2019-05-20T15:07:29.232Z,85.10
2019-05-20T15:09:46.138Z,85.20
2019-05-20T15:12:15.043Z,85.20
2019-05-20T15:14:43.849Z,85.40
2019-05-20T15:17:15.395Z,85.80
2019-05-20T15:19:43.946Z,86.10
2019-05-20T15:22:14.231Z,85.70
2019-05-20T15:24:42.813Z,85.40
2019-05-20T15:27:11.355Z,85.10
2019-05-20T15:29:39.914Z,85.10
2019-05-20T15:32:08.609Z,85.40
2019-05-20T15:34:37.222Z,85.30
2019-05-20T15:37:06.077Z,85.30
2019-05-20T15:39:34.770Z,85.40
2019-05-20T15:42:03.576Z,85.10
2019-05-20T15:44:32.347Z,85.40
2019-05-20T15:47:00.907Z,85.00
2019-05-20T15:49:29.597Z,84.70
2019-05-20T15:51:58.395Z,84.40
2019-05-20T15:54:26.979Z,84.00
2019-05-20T15:56:55.537Z,83.80
2019-05-20T15:59:24.267Z,83.80
2019-05-20T16:01:54.122Z,83.80
2019-05-20T16:04:22.674Z,84.00
2019-05-20T16:06:51.593Z,84.00
2019-05-20T16:09:20.535Z,83.80
2019-05-20T16:11:49.351Z,83.80
2019-05-20T16:14:18.115Z,83.80
2019-05-20T16:16:46.822Z,83.60
2019-05-20T16:19:15.438Z,84.00
2019-05-20T16:21:47.708Z,83.50
2019-05-20T16:24:14.681Z,83.50
2019-05-20T16:26:43.476Z,82.90
2019-05-20T16:29:12.298Z,83.10
2019-05-20T16:31:41.281Z,83.50
2019-05-20T16:34:09.956Z,83.50
2019-05-20T16:36:40.221Z,83.20
2019-05-20T16:39:09.030Z,83.10
2019-05-20T16:41:37.855Z,83.30
2019-05-20T16:44:06.763Z,82.80
2019-05-20T16:46:35.465Z,83.40
2019-05-20T16:49:04.177Z,83.80
2019-05-20T16:51:33.154Z,84.10
2019-05-20T16:54:01.773Z,84.20
2019-05-20T16:56:30.472Z,84.40
2019-05-20T16:58:59.268Z,84.20
2019-05-20T17:01:28.100Z,84.10
2019-05-20T17:03:56.825Z,84.40
2019-05-20T17:06:27.578Z,84.50
2019-05-20T17:08:55.939Z,84.70
2019-05-20T17:11:24.836Z,84.80
2019-05-20T17:13:53.635Z,85.00
2019-05-20T17:16:22.329Z,85.40
2019-05-20T17:18:51.090Z,85.90
2019-05-20T17:21:21.075Z,86.20
2019-05-20T17:23:49.709Z,86.50
2019-05-20T17:26:18.460Z,86.80
2019-05-20T17:28:47.405Z,87.20
2019-05-20T17:31:16.337Z,87.30
2019-05-20T17:33:44.977Z,87.40
2019-05-20T17:36:13.941Z,87.40
2019-05-20T17:38:42.522Z,87.60
2019-05-20T17:41:11.399Z,87.70
2019-05-20T17:43:40.496Z,87.70
2019-05-20T17:46:09.181Z,87.50
2019-05-20T17:48:38.099Z,87.60
2019-05-20T17:51:06.879Z,87.70
2019-05-20T17:53:35.505Z,87.50
2019-05-20T17:56:04.354Z,87.50
2019-05-20T17:58:33.354Z,87.40
2019-05-20T18:01:14.762Z,87.30
2019-05-20T18:03:32.437Z,87.40
2019-05-20T18:06:01.315Z,87.50
2019-05-20T18:08:31.578Z,87.70
2019-05-20T18:11:00.485Z,87.70
2019-05-20T18:13:29.205Z,87.60
2019-05-20T18:15:57.890Z,87.80
2019-05-20T18:18:26.441Z,88.00
2019-05-20T18:20:56.581Z,87.80
2019-05-20T18:23:25.448Z,87.70
2019-05-20T18:25:54.086Z,87.80
2019-05-20T18:28:23.046Z,87.90
2019-05-20T18:30:51.998Z,87.90
2019-05-20T18:33:20.671Z,88.10
2019-05-20T18:35:49.410Z,88.20
2019-05-20T18:38:17.982Z,88.40
2019-05-20T18:40:47.025Z,88.70
2019-05-20T18:43:15.867Z,89.10
2019-05-20T18:45:44.525Z,89.10
2019-05-20T18:48:13.383Z,89.30
2019-05-20T18:50:43.647Z,89.60
2019-05-20T18:53:12.643Z,89.50
2019-05-20T18:55:41.272Z,89.70
2019-05-20T18:58:10.030Z,89.50
2019-05-20T19:00:39.163Z,89.50
2019-05-20T19:03:08.066Z,89.30
2019-05-20T19:05:37.088Z,89.40
2019-05-20T19:08:07.262Z,89.60
2019-05-20T19:10:36.903Z,89.70
2019-05-20T19:13:05.740Z,89.60
2019-05-20T19:15:34.496Z,89.70
2019-05-20T19:18:03.003Z,89.90
2019-05-20T19:20:31.804Z,90.00
2019-05-20T19:23:00.351Z,90.10
2019-05-20T19:25:37.389Z,90.10
2019-05-20T19:27:59.329Z,90.00
2019-05-20T19:30:31.465Z,89.30
2019-05-20T19:33:00.025Z,90.00
2019-05-20T19:35:28.817Z,90.00
2019-05-20T19:37:57.351Z,90.10
2019-05-20T19:40:26.180Z,90.30
2019-05-20T19:42:54.976Z,90.30
2019-05-20T19:45:23.548Z,90.40
2019-05-20T19:47:52.122Z,90.50
2019-05-20T19:50:21.142Z,90.50
2019-05-20T19:52:49.759Z,90.80
2019-05-20T19:55:19.230Z,90.50
2019-05-20T19:57:48.264Z,90.40
2019-05-20T20:00:18.882Z,90.30
2019-05-20T20:02:47.441Z,90.20
2019-05-20T20:05:16.544Z,90.20
2019-05-20T20:07:45.073Z,90.20
2019-05-20T20:10:14.150Z,90.20
2019-05-20T20:12:42.724Z,90.20
2019-05-20T20:15:19.064Z,90.30
2019-05-20T20:17:51.052Z,90.30
2019-05-20T20:20:19.656Z,90.30
2019-05-20T20:22:48.171Z,90.80
2019-05-20T20:25:16.742Z,90.50
2019-05-20T20:27:45.251Z,90.50
2019-05-20T20:30:14.395Z,90.50
2019-05-20T20:32:42.962Z,90.50
2019-05-20T20:35:11.686Z,90.50
2019-05-20T20:37:40.187Z,90.60
2019-05-20T20:40:09.636Z,90.60
2019-05-20T20:42:38.156Z,90.60
2019-05-20T20:45:07.276Z,90.60
2019-05-20T20:47:41.729Z,90.60
2019-05-20T20:50:06.598Z,90.70
2019-05-20T20:52:35.201Z,90.80
2019-05-20T20:55:05.233Z,90.70
2019-05-20T20:57:33.849Z,90.70
2019-05-20T21:00:02.618Z,90.70
2019-05-20T21:02:31.464Z,90.70
2019-05-20T21:05:00.010Z,90.70
2019-05-20T21:07:28.569Z,90.80
2019-05-20T21:09:57.760Z,90.80
2019-05-20T21:12:26.513Z,90.90
2019-05-20T21:14:55.127Z,91.00
2019-05-20T21:17:23.870Z,91.00
2019-05-20T21:19:52.355Z,91.10
2019-05-20T21:22:22.070Z,91.20
2019-05-20T21:24:50.897Z,91.20
2019-05-20T21:27:19.415Z,91.30
2019-05-20T21:29:47.969Z,91.10
2019-05-20T21:32:16.810Z,91.40
2019-05-20T21:34:45.353Z,91.50
2019-05-20T21:37:13.817Z,91.40
2019-05-20T21:39:42.534Z,91.50
2019-05-20T21:42:11.177Z,91.50
2019-05-20T21:44:39.763Z,91.60
2019-05-20T21:47:08.577Z,91.60
2019-05-20T21:49:37.409Z,91.60
2019-05-20T21:52:05.972Z,91.70
2019-05-20T21:54:34.692Z,91.70
2019-05-20T21:57:03.264Z,91.90
2019-05-20T21:59:31.787Z,91.50
2019-05-20T22:02:00.887Z,91.60
2019-05-20T22:04:29.507Z,91.70
2019-05-20T22:06:58.059Z,91.70
2019-05-20T22:09:26.967Z,91.70
2019-05-20T22:11:55.874Z,91.80
2019-05-20T22:14:24.380Z,91.80
2019-05-20T22:16:53.289Z,91.80
2019-05-20T22:19:22.321Z,91.80
2019-05-20T22:22:09.094Z,91.80
2019-05-20T22:24:37.613Z,91.80
2019-05-20T22:27:06.209Z,91.80
2019-05-20T22:29:34.931Z,91.90
2019-05-20T22:32:03.779Z,91.90
2019-05-20T22:34:32.337Z,91.90
2019-05-20T22:37:01.067Z,91.80
2019-05-20T22:39:30.115Z,91.80
2019-05-20T22:41:58.865Z,91.80
2019-05-20T22:44:27.536Z,91.70
2019-05-20T22:46:56.130Z,91.70
2019-05-20T22:49:24.709Z,91.70
2019-05-20T22:51:53.970Z,91.70
2019-05-20T22:54:22.537Z,91.80
2019-05-20T22:56:51.083Z,91.90
2019-05-20T22:59:19.868Z,91.90
2019-05-20T23:01:48.871Z,91.80
2019-05-20T23:04:17.442Z,91.80
2019-05-20T23:06:46.190Z,91.70
2019-05-20T23:09:15.127Z,91.70
2019-05-20T23:11:43.964Z,91.70
2019-05-20T23:14:12.474Z,91.70
2019-05-20T23:16:40.928Z,91.70
2019-05-20T23:19:09.469Z,91.70
2019-05-20T23:21:38.708Z,91.70
2019-05-20T23:24:07.236Z,91.80
2019-05-20T23:26:35.765Z,91.70
2019-05-20T23:29:04.615Z,91.70
2019-05-20T23:31:33.426Z,91.80
2019-05-20T23:34:12.198Z,91.80
2019-05-20T23:36:32.238Z,91.80
2019-05-20T23:39:00.699Z,91.80
2019-05-20T23:41:29.425Z,91.90
2019-05-20T23:43:57.996Z,91.80
2019-05-20T23:46:26.481Z,91.90
2019-05-20T23:48:55.089Z,91.90
2019-05-20T23:51:24.151Z,91.90
2019-05-20T23:53:52.771Z,91.90
2019-05-20T23:56:21.393Z,91.90
2019-05-20T23:58:50.090Z,91.90
